sensor_id;sensor_type;location;lat;lon;timestamp;pressure;altitude;pressure_sealevel;temperature;humidity
10806;BME280;5455;53.224;6.000;2022-09-06T00:02:30;101677.84;;;21.59;69.86
10806;BME280;5455;53.224;6.000;2022-09-06T00:04:58;101677.88;;;21.55;70.19
10806;BME280;5455;53.224;6.000;2022-09-06T00:07:25;101664.69;;;21.49;70.72
10806;BME280;5455;53.224;6.000;2022-09-06T00:09:52;101673.53;;;21.47;70.61
10806;BME280;5455;53.224;6.000;2022-09-06T00:12:19;101673.91;;;21.49;70.68
10806;BME280;5455;53.224;6.000;2022-09-06T00:14:46;101681.13;;;21.50;70.53
10806;BME280;5455;53.224;6.000;2022-09-06T00:17:13;101664.34;;;21.43;71.09
10806;BME280;5455;53.224;6.000;2022-09-06T00:19:40;101666.75;;;21.45;71.05
10806;BME280;5455;53.224;6.000;2022-09-06T00:22:07;101669.13;;;21.46;71.06
10806;BME280;5455;53.224;6.000;2022-09-06T00:24:34;101665.53;;;21.42;71.37
10806;BME280;5455;53.224;6.000;2022-09-06T00:27:06;101668.00;;;21.36;71.48
10806;BME280;5455;53.224;6.000;2022-09-06T00:29:34;101663.25;;;21.30;72.03
10806;BME280;5455;53.224;6.000;2022-09-06T00:32:01;101651.28;;;21.22;72.69
10806;BME280;5455;53.224;6.000;2022-09-06T00:34:28;101658.09;;;21.21;72.70
10806;BME280;5455;53.224;6.000;2022-09-06T00:36:55;101653.72;;;21.20;72.83
10806;BME280;5455;53.224;6.000;2022-09-06T00:39:22;101654.09;;;21.19;73.04
10806;BME280;5455;53.224;6.000;2022-09-06T00:41:49;101654.94;;;21.16;73.32
10806;BME280;5455;53.224;6.000;2022-09-06T00:44:16;101656.56;;;21.13;73.70
10806;BME280;5455;53.224;6.000;2022-09-06T00:46:45;101642.13;;;21.15;74.12
10806;BME280;5455;53.224;6.000;2022-09-06T00:49:26;101639.28;;;21.18;74.29
10806;BME280;5455;53.224;6.000;2022-09-06T00:52:03;101643.28;;;21.21;74.04
10806;BME280;5455;53.224;6.000;2022-09-06T00:54:32;101634.06;;;21.24;73.66
10806;BME280;5455;53.224;6.000;2022-09-06T00:56:59;101633.25;;;21.23;73.51
10806;BME280;5455;53.224;6.000;2022-09-06T00:59:29;101630.03;;;21.21;73.46
10806;BME280;5455;53.224;6.000;2022-09-06T01:01:57;101641.25;;;21.25;72.98
10806;BME280;5455;53.224;6.000;2022-09-06T01:04:25;101626.38;;;21.28;72.49
10806;BME280;5455;53.224;6.000;2022-09-06T01:20:31;101625.59;;;21.27;71.18
10806;BME280;5455;53.224;6.000;2022-09-06T01:26:09;101644.41;;;21.30;70.89
10806;BME280;5455;53.224;6.000;2022-09-06T01:28:43;101630.81;;;21.25;70.96
10806;BME280;5455;53.224;6.000;2022-09-06T01:36:24;101629.66;;;21.23;70.52
10806;BME280;5455;53.224;6.000;2022-09-06T01:38:52;101625.63;;;21.24;70.40
10806;BME280;5455;53.224;6.000;2022-09-06T01:41:19;101625.22;;;21.22;70.36
10806;BME280;5455;53.224;6.000;2022-09-06T01:43:49;101625.66;;;21.20;70.39
10806;BME280;5455;53.224;6.000;2022-09-06T01:49:56;101628.50;;;21.17;70.38
10806;BME280;5455;53.224;6.000;2022-09-06T02:00:22;101620.13;;;21.10;70.02
10806;BME280;5455;53.224;6.000;2022-09-06T02:05:42;101613.31;;;21.04;70.27
10806;BME280;5455;53.224;6.000;2022-09-06T02:08:18;101611.78;;;20.99;70.34
10806;BME280;5455;53.224;6.000;2022-09-06T02:10:51;101612.59;;;20.96;70.34
10806;BME280;5455;53.224;6.000;2022-09-06T02:13:22;101617.03;;;20.94;70.38
10806;BME280;5455;53.224;6.000;2022-09-06T02:15:54;101610.19;;;20.91;70.59
10806;BME280;5455;53.224;6.000;2022-09-06T02:18:33;101613.44;;;20.89;70.55
10806;BME280;5455;53.224;6.000;2022-09-06T02:21:04;101607.44;;;20.87;70.29
10806;BME280;5455;53.224;6.000;2022-09-06T02:23:36;101607.84;;;20.86;70.12
10806;BME280;5455;53.224;6.000;2022-09-06T02:26:20;101606.25;;;20.85;70.25
10806;BME280;5455;53.224;6.000;2022-09-06T02:28:49;101594.66;;;20.83;70.12
10806;BME280;5455;53.224;6.000;2022-09-06T02:31:23;101591.03;;;20.82;70.14
10806;BME280;5455;53.224;6.000;2022-09-06T02:33:52;101599.06;;;20.80;70.27
10806;BME280;5455;53.224;6.000;2022-09-06T02:36:19;101592.69;;;20.73;70.40
10806;BME280;5455;53.224;6.000;2022-09-06T02:38:47;101584.34;;;20.69;70.63
10806;BME280;5455;53.224;6.000;2022-09-06T02:41:16;101577.91;;;20.72;70.22
10806;BME280;5455;53.224;6.000;2022-09-06T02:43:44;101573.88;;;20.73;70.21
10806;BME280;5455;53.224;6.000;2022-09-06T02:46:10;101569.50;;;20.72;70.06
10806;BME280;5455;53.224;6.000;2022-09-06T02:48:38;101573.88;;;20.73;69.97
10806;BME280;5455;53.224;6.000;2022-09-06T02:51:06;101573.50;;;20.71;70.00
10806;BME280;5455;53.224;6.000;2022-09-06T02:53:34;101572.31;;;20.69;70.15
10806;BME280;5455;53.224;6.000;2022-09-06T02:56:02;101571.53;;;20.65;70.32
10806;BME280;5455;53.224;6.000;2022-09-06T02:58:29;101568.81;;;20.58;70.52
10806;BME280;5455;53.224;6.000;2022-09-06T03:00:56;101582.03;;;20.54;70.70
10806;BME280;5455;53.224;6.000;2022-09-06T03:03:23;101568.81;;;20.54;70.86
10806;BME280;5455;53.224;6.000;2022-09-06T03:05:52;101559.22;;;20.52;71.11
10806;BME280;5455;53.224;6.000;2022-09-06T03:08:20;101567.66;;;20.48;71.03
10806;BME280;5455;53.224;6.000;2022-09-06T03:10:52;101569.28;;;20.46;71.32
10806;BME280;5455;53.224;6.000;2022-09-06T03:13:19;101570.88;;;20.43;71.36
10806;BME280;5455;53.224;6.000;2022-09-06T03:15:54;101560.88;;;20.42;71.44
10806;BME280;5455;53.224;6.000;2022-09-06T03:18:23;101561.28;;;20.37;71.60
10806;BME280;5455;53.224;6.000;2022-09-06T03:20:51;101564.09;;;20.37;71.47
10806;BME280;5455;53.224;6.000;2022-09-06T03:23:20;101562.53;;;20.36;71.76
10806;BME280;5455;53.224;6.000;2022-09-06T03:25:47;101559.72;;;20.32;71.93
10806;BME280;5455;53.224;6.000;2022-09-06T03:28:15;101565.34;;;20.29;72.00
10806;BME280;5455;53.224;6.000;2022-09-06T03:30:46;101563.75;;;20.28;72.33
10806;BME280;5455;53.224;6.000;2022-09-06T03:33:14;101563.38;;;20.26;72.23
10806;BME280;5455;53.224;6.000;2022-09-06T03:35:50;101558.56;;;20.23;72.30
10806;BME280;5455;53.224;6.000;2022-09-06T03:38:17;101555.75;;;20.23;72.32
10806;BME280;5455;53.224;6.000;2022-09-06T03:40:48;101559.75;;;20.22;72.23
10806;BME280;5455;53.224;6.000;2022-09-06T03:43:16;101558.16;;;20.21;72.26
10806;BME280;5455;53.224;6.000;2022-09-06T03:45:47;101557.75;;;20.19;72.28
10806;BME280;5455;53.224;6.000;2022-09-06T03:48:15;101558.19;;;20.17;72.48
10806;BME280;5455;53.224;6.000;2022-09-06T03:50:53;101558.97;;;20.18;72.46
10806;BME280;5455;53.224;6.000;2022-09-06T03:53:21;101568.59;;;20.17;72.39
10806;BME280;5455;53.224;6.000;2022-09-06T03:55:50;101561.00;;;20.14;72.63
10806;BME280;5455;53.224;6.000;2022-09-06T03:58:20;101564.22;;;20.12;72.69
10806;BME280;5455;53.224;6.000;2022-09-06T04:00:47;101555.84;;;20.05;72.82
10806;BME280;5455;53.224;6.000;2022-09-06T04:03:15;101569.03;;;20.08;72.90
10806;BME280;5455;53.224;6.000;2022-09-06T04:05:45;101567.84;;;20.06;73.08
10806;BME280;5455;53.224;6.000;2022-09-06T04:08:12;101573.81;;;20.04;73.25
10806;BME280;5455;53.224;6.000;2022-09-06T04:10:39;101569.84;;;20.02;73.44
10806;BME280;5455;53.224;6.000;2022-09-06T04:13:06;101580.25;;;20.01;73.50
10806;BME280;5455;53.224;6.000;2022-09-06T04:15:33;101579.47;;;20.01;73.53
10806;BME280;5455;53.224;6.000;2022-09-06T04:18:00;101585.06;;;20.01;73.67
10806;BME280;5455;53.224;6.000;2022-09-06T04:20:32;101603.44;;;20.02;73.70
10806;BME280;5455;53.224;6.000;2022-09-06T04:22:59;101595.47;;;20.00;73.86
10806;BME280;5455;53.224;6.000;2022-09-06T04:25:26;101604.25;;;19.99;73.99
10806;BME280;5455;53.224;6.000;2022-09-06T04:27:53;101617.84;;;20.00;74.14
10806;BME280;5455;53.224;6.000;2022-09-06T04:30:20;101615.88;;;20.01;75.00
10806;BME280;5455;53.224;6.000;2022-09-06T04:32:47;101630.63;;;20.01;75.94
10806;BME280;5455;53.224;6.000;2022-09-06T04:35:14;101621.47;;;19.97;77.91
10806;BME280;5455;53.224;6.000;2022-09-06T04:37:41;101631.88;;;19.86;80.11
10806;BME280;5455;53.224;6.000;2022-09-06T04:40:08;101615.50;;;19.77;82.47
10806;BME280;5455;53.224;6.000;2022-09-06T04:42:35;101620.72;;;19.65;84.38
10806;BME280;5455;53.224;6.000;2022-09-06T04:45:02;101613.53;;;19.53;85.88
10806;BME280;5455;53.224;6.000;2022-09-06T04:47:29;101604.75;;;19.48;87.90
10806;BME280;5455;53.224;6.000;2022-09-06T04:49:56;101609.16;;;19.42;89.04
10806;BME280;5455;53.224;6.000;2022-09-06T04:52:23;101622.34;;;19.38;90.43
10806;BME280;5455;53.224;6.000;2022-09-06T04:54:56;101621.16;;;19.32;91.77
10806;BME280;5455;53.224;6.000;2022-09-06T04:57:22;101614.34;;;19.25;92.91
10806;BME280;5455;53.224;6.000;2022-09-06T04:59:49;101612.75;;;19.21;94.09
10806;BME280;5455;53.224;6.000;2022-09-06T05:02:16;101605.16;;;19.14;95.23
10806;BME280;5455;53.224;6.000;2022-09-06T05:04:43;101606.34;;;19.10;96.07
10806;BME280;5455;53.224;6.000;2022-09-06T05:07:10;101608.31;;;18.99;96.95
10806;BME280;5455;53.224;6.000;2022-09-06T05:09:37;101605.13;;;18.93;98.11
10806;BME280;5455;53.224;6.000;2022-09-06T05:12:04;101601.13;;;18.87;99.44
10806;BME280;5455;53.224;6.000;2022-09-06T05:14:31;101601.13;;;18.84;99.50
10806;BME280;5455;53.224;6.000;2022-09-06T05:16:58;101593.13;;;18.68;99.94
10806;BME280;5455;53.224;6.000;2022-09-06T05:19:25;101589.13;;;18.65;100.00
10806;BME280;5455;53.224;6.000;2022-09-06T05:21:52;101594.69;;;18.58;100.00
10806;BME280;5455;53.224;6.000;2022-09-06T05:24:19;101604.69;;;18.70;100.00
10806;BME280;5455;53.224;6.000;2022-09-06T05:26:46;101602.72;;;18.74;100.00
10806;BME280;5455;53.224;6.000;2022-09-06T05:29:13;101594.34;;;18.74;100.00
10806;BME280;5455;53.224;6.000;2022-09-06T05:31:40;101597.13;;;18.78;100.00
10806;BME280;5455;53.224;6.000;2022-09-06T05:34:07;101588.75;;;18.74;100.00
10806;BME280;5455;53.224;6.000;2022-09-06T05:36:34;101584.75;;;18.68;100.00
10806;BME280;5455;53.224;6.000;2022-09-06T05:39:01;101590.34;;;18.68;100.00
10806;BME280;5455;53.224;6.000;2022-09-06T05:41:28;101585.53;;;18.65;100.00
10806;BME280;5455;53.224;6.000;2022-09-06T05:43:55;101591.50;;;18.63;100.00
10806;BME280;5455;53.224;6.000;2022-09-06T05:46:22;101584.72;;;18.57;100.00
10806;BME280;5455;53.224;6.000;2022-09-06T05:48:54;101587.50;;;18.57;100.00
10806;BME280;5455;53.224;6.000;2022-09-06T05:51:23;101582.75;;;18.61;100.00
10806;BME280;5455;53.224;6.000;2022-09-06T05:53:50;101582.34;;;18.66;100.00
10806;BME280;5455;53.224;6.000;2022-09-06T05:56:17;101589.13;;;18.69;100.00
10806;BME280;5455;53.224;6.000;2022-09-06T05:58:44;101590.34;;;18.72;100.00
10806;BME280;5455;53.224;6.000;2022-09-06T06:01:23;101595.13;;;18.75;100.00
10806;BME280;5455;53.224;6.000;2022-09-06T06:03:55;101592.34;;;18.71;100.00
10806;BME280;5455;53.224;6.000;2022-09-06T06:06:23;101585.94;;;18.70;100.00
10806;BME280;5455;53.224;6.000;2022-09-06T06:08:51;101591.13;;;18.76;100.00
10806;BME280;5455;53.224;6.000;2022-09-06T06:11:19;101587.13;;;18.69;100.00
10806;BME280;5455;53.224;6.000;2022-09-06T06:13:46;101589.91;;;18.66;100.00
10806;BME280;5455;53.224;6.000;2022-09-06T06:16:14;101589.91;;;18.59;100.00
10806;BME280;5455;53.224;6.000;2022-09-06T06:18:42;101591.91;;;18.58;100.00
10806;BME280;5455;53.224;6.000;2022-09-06T06:21:21;101589.13;;;18.65;100.00
10806;BME280;5455;53.224;6.000;2022-09-06T06:23:51;101587.94;;;18.70;100.00
10806;BME280;5455;53.224;6.000;2022-09-06T06:26:18;101585.13;;;18.66;100.00
10806;BME280;5455;53.224;6.000;2022-09-06T06:28:45;101590.72;;;18.70;100.00
10806;BME280;5455;53.224;6.000;2022-09-06T06:31:13;101591.53;;;18.74;100.00
10806;BME280;5455;53.224;6.000;2022-09-06T06:33:40;101594.31;;;18.78;100.00
10806;BME280;5455;53.224;6.000;2022-09-06T06:38:39;101596.75;;;19.00;100.00
10806;BME280;5455;53.224;6.000;2022-09-06T06:41:08;101596.34;;;19.05;99.72
10806;BME280;5455;53.224;6.000;2022-09-06T06:43:35;101593.16;;;19.03;99.15
10806;BME280;5455;53.224;6.000;2022-09-06T06:46:14;101591.56;;;18.99;99.38
10806;BME280;5455;53.224;6.000;2022-09-06T06:48:43;101586.75;;;18.96;99.08
10806;BME280;5455;53.224;6.000;2022-09-06T06:51:13;101589.16;;;18.94;99.40
10806;BME280;5455;53.224;6.000;2022-09-06T06:53:40;101587.97;;;18.95;99.17
10806;BME280;5455;53.224;6.000;2022-09-06T06:56:17;101589.19;;;19.01;99.09
10806;BME280;5455;53.224;6.000;2022-09-06T06:58:45;101593.56;;;19.02;98.77
10806;BME280;5455;53.224;6.000;2022-09-06T07:01:18;101588.78;;;19.06;99.27
10806;BME280;5455;53.224;6.000;2022-09-06T07:03:46;101582.00;;;19.10;99.63
10806;BME280;5455;53.224;6.000;2022-09-06T07:06:14;101587.56;;;19.14;99.57
10806;BME280;5455;53.224;6.000;2022-09-06T07:08:42;101593.97;;;19.18;99.75
10806;BME280;5455;53.224;6.000;2022-09-06T07:11:10;101590.75;;;19.26;99.89
10806;BME280;5455;53.224;6.000;2022-09-06T07:13:38;101588.41;;;19.39;99.84
10806;BME280;5455;53.224;6.000;2022-09-06T07:18:42;101587.19;;;19.58;99.42
10806;BME280;5455;53.224;6.000;2022-09-06T07:21:13;101600.75;;;19.66;98.42
10806;BME280;5455;53.224;6.000;2022-09-06T07:24:00;101586.75;;;19.70;97.88
10806;BME280;5455;53.224;6.000;2022-09-06T07:26:33;101586.31;;;19.78;97.17
10806;BME280;5455;53.224;6.000;2022-09-06T07:29:03;101585.50;;;19.85;96.80
10806;BME280;5455;53.224;6.000;2022-09-06T07:31:31;101571.47;;;19.96;96.35
10806;BME280;5455;53.224;6.000;2022-09-06T07:34:18;101573.81;;;20.08;95.37
10806;BME280;5455;53.224;6.000;2022-09-06T07:36:46;101573.81;;;20.15;94.56
10806;BME280;5455;53.224;6.000;2022-09-06T07:39:14;101566.16;;;20.26;93.98
10806;BME280;5455;53.224;6.000;2022-09-06T07:41:42;101568.53;;;20.34;92.98
10806;BME280;5455;53.224;6.000;2022-09-06T07:44:09;101575.28;;;20.44;93.24
10806;BME280;5455;53.224;6.000;2022-09-06T07:46:36;101565.63;;;20.52;92.62
10806;BME280;5455;53.224;6.000;2022-09-06T07:49:04;101575.97;;;20.62;91.95
10806;BME280;5455;53.224;6.000;2022-09-06T07:51:31;101587.06;;;20.76;91.07
10806;BME280;5455;53.224;6.000;2022-09-06T07:53:59;101587.78;;;20.91;90.65
10806;BME280;5455;53.224;6.000;2022-09-06T07:56:46;101584.88;;;21.09;89.43
10806;BME280;5455;53.224;6.000;2022-09-06T07:59:13;101593.63;;;21.18;88.19
10806;BME280;5455;53.224;6.000;2022-09-06T08:01:41;101588.47;;;21.09;87.14
10806;BME280;5455;53.224;6.000;2022-09-06T08:04:10;101594.88;;;21.06;87.81
10806;BME280;5455;53.224;6.000;2022-09-06T08:06:41;101596.47;;;21.11;88.41
10806;BME280;5455;53.224;6.000;2022-09-06T08:09:28;101610.03;;;21.19;88.22
10806;BME280;5455;53.224;6.000;2022-09-06T08:11:55;101605.47;;;21.36;88.73
10806;BME280;5455;53.224;6.000;2022-09-06T08:14:22;101603.78;;;21.46;87.72
10806;BME280;5455;53.224;6.000;2022-09-06T08:16:49;101603.72;;;21.53;86.54
10806;BME280;5455;53.224;6.000;2022-09-06T08:19:16;101598.06;;;21.56;86.44
10806;BME280;5455;53.224;6.000;2022-09-06T08:21:43;101595.66;;;21.58;86.12
10806;BME280;5455;53.224;6.000;2022-09-06T08:24:10;101593.59;;;21.62;86.28
10806;BME280;5455;53.224;6.000;2022-09-06T08:26:38;101596.81;;;21.61;85.88
10806;BME280;5455;53.224;6.000;2022-09-06T08:29:08;101598.75;;;21.67;86.19
10806;BME280;5455;53.224;6.000;2022-09-06T08:31:41;101604.69;;;21.76;85.42
10806;BME280;5455;53.224;6.000;2022-09-06T08:34:08;101603.34;;;21.91;84.29
10806;BME280;5455;53.224;6.000;2022-09-06T08:36:38;101598.38;;;22.03;83.46
10806;BME280;5455;53.224;6.000;2022-09-06T08:39:07;101598.16;;;22.20;83.10
10806;BME280;5455;53.224;6.000;2022-09-06T08:41:59;101593.66;;;22.26;82.02
10806;BME280;5455;53.224;6.000;2022-09-06T08:47:24;101600.69;;;22.41;81.33
10806;BME280;5455;53.224;6.000;2022-09-06T08:50:00;101602.53;;;22.55;81.35
10806;BME280;5455;53.224;6.000;2022-09-06T08:52:42;101602.41;;;22.66;81.06
10806;BME280;5455;53.224;6.000;2022-09-06T08:55:39;101607.88;;;22.76;80.36
10806;BME280;5455;53.224;6.000;2022-09-06T08:58:33;101612.97;;;22.85;79.93
10806;BME280;5455;53.224;6.000;2022-09-06T09:01:11;101605.97;;;22.96;79.13
10806;BME280;5455;53.224;6.000;2022-09-06T09:03:41;101598.09;;;23.11;79.28
10806;BME280;5455;53.224;6.000;2022-09-06T09:06:09;101593.56;;;23.17;78.41
10806;BME280;5455;53.224;6.000;2022-09-06T09:11:06;101601.75;;;23.31;77.62
10806;BME280;5455;53.224;6.000;2022-09-06T09:16:13;101594.59;;;23.27;77.03
10806;BME280;5455;53.224;6.000;2022-09-06T09:18:43;101602.16;;;23.33;75.71
10806;BME280;5455;53.224;6.000;2022-09-06T09:21:20;101607.66;;;23.40;75.64
10806;BME280;5455;53.224;6.000;2022-09-06T09:23:56;101605.78;;;23.57;75.41
10806;BME280;5455;53.224;6.000;2022-09-06T09:26:27;101601.88;;;23.71;75.37
10806;BME280;5455;53.224;6.000;2022-09-06T09:29:11;101604.16;;;23.79;73.38
10806;BME280;5455;53.224;6.000;2022-09-06T09:31:45;101602.84;;;23.84;72.75
10806;BME280;5455;53.224;6.000;2022-09-06T09:34:30;101588.91;;;23.96;72.33
10806;BME280;5455;53.224;6.000;2022-09-06T09:37:32;101595.47;;;24.09;71.73
10806;BME280;5455;53.224;6.000;2022-09-06T09:40:31;101596.59;;;24.35;70.77
10806;BME280;5455;53.224;6.000;2022-09-06T09:51:29;101588.28;;;24.64;67.67
10806;BME280;5455;53.224;6.000;2022-09-06T09:54:06;101597.00;;;24.53;68.03
10806;BME280;5455;53.224;6.000;2022-09-06T09:56:50;101585.72;;;24.53;67.59
10806;BME280;5455;53.224;6.000;2022-09-06T09:59:25;101579.19;;;24.56;68.02
10806;BME280;5455;53.224;6.000;2022-09-06T10:01:56;101574.69;;;24.59;68.02
10806;BME280;5455;53.224;6.000;2022-09-06T10:04:35;101579.81;;;24.64;68.29
10806;BME280;5455;53.224;6.000;2022-09-06T10:07:14;101576.50;;;24.69;69.00
10806;BME280;5455;53.224;6.000;2022-09-06T10:09:45;101569.78;;;24.79;68.21
10806;BME280;5455;53.224;6.000;2022-09-06T10:12:16;101571.38;;;24.80;66.84
10806;BME280;5455;53.224;6.000;2022-09-06T10:14:45;101572.41;;;24.90;66.79
10806;BME280;5455;53.224;6.000;2022-09-06T10:17:49;101572.31;;;24.93;65.90
10806;BME280;5455;53.224;6.000;2022-09-06T10:20:16;101571.78;;;24.98;65.29
10806;BME280;5455;53.224;6.000;2022-09-06T10:30:46;101567.06;;;25.40;64.15
10806;BME280;5455;53.224;6.000;2022-09-06T10:33:33;101562.31;;;25.53;63.87
10806;BME280;5455;53.224;6.000;2022-09-06T10:36:03;101563.69;;;25.61;62.83
10806;BME280;5455;53.224;6.000;2022-09-06T10:38:52;101559.53;;;25.66;63.08
10806;BME280;5455;53.224;6.000;2022-09-06T10:47:09;101545.50;;;25.91;60.33
10806;BME280;5455;53.224;6.000;2022-09-06T10:49:37;101544.75;;;26.03;59.24
10806;BME280;5455;53.224;6.000;2022-09-06T10:52:09;101546.91;;;26.12;59.11
10806;BME280;5455;53.224;6.000;2022-09-06T10:54:40;101545.47;;;26.20;56.79
10806;BME280;5455;53.224;6.000;2022-09-06T10:57:20;101542.56;;;26.36;57.45
10806;BME280;5455;53.224;6.000;2022-09-06T11:00:10;101537.47;;;26.44;56.18
10806;BME280;5455;53.224;6.000;2022-09-06T11:03:05;101527.97;;;26.63;56.33
10806;BME280;5455;53.224;6.000;2022-09-06T11:05:58;101531.50;;;26.79;54.64
10806;BME280;5455;53.224;6.000;2022-09-06T11:08:42;101534.53;;;26.98;53.87
10806;BME280;5455;53.224;6.000;2022-09-06T11:11:20;101530.66;;;27.04;54.47
10806;BME280;5455;53.224;6.000;2022-09-06T11:13:49;101539.50;;;27.06;54.20
10806;BME280;5455;53.224;6.000;2022-09-06T11:16:23;101540.53;;;27.34;54.04
10806;BME280;5455;53.224;6.000;2022-09-06T11:24:27;101542.91;;;27.48;52.23
10806;BME280;5455;53.224;6.000;2022-09-06T11:27:04;101536.56;;;27.31;51.87
10806;BME280;5455;53.224;6.000;2022-09-06T11:29:39;101530.59;;;27.29;52.56
10806;BME280;5455;53.224;6.000;2022-09-06T11:32:31;101537.69;;;27.34;52.21
10806;BME280;5455;53.224;6.000;2022-09-06T11:35:04;101528.53;;;27.43;51.58
10806;BME280;5455;53.224;6.000;2022-09-06T11:37:39;101522.16;;;27.51;52.21
10806;BME280;5455;53.224;6.000;2022-09-06T11:40:24;101524.06;;;27.54;52.48
10806;BME280;5455;53.224;6.000;2022-09-06T11:53:33;101518.19;;;27.70;49.36
10806;BME280;5455;53.224;6.000;2022-09-06T11:58:35;101519.34;;;27.73;49.80
10806;BME280;5455;53.224;6.000;2022-09-06T12:06:32;101513.91;;;28.09;47.47
10806;BME280;5455;53.224;6.000;2022-09-06T12:09:36;101510.94;;;28.13;48.07
10806;BME280;5455;53.224;6.000;2022-09-06T12:12:03;101518.06;;;28.17;47.83
10806;BME280;5455;53.224;6.000;2022-09-06T12:14:33;101513.03;;;28.21;46.71
10806;BME280;5455;53.224;6.000;2022-09-06T12:25:03;101515.53;;;28.50;46.44
10806;BME280;5455;53.224;6.000;2022-09-06T12:27:32;101517.72;;;28.46;46.24
10806;BME280;5455;53.224;6.000;2022-09-06T12:30:04;101508.78;;;28.57;46.70
10806;BME280;5455;53.224;6.000;2022-09-06T12:35:22;101507.75;;;28.72;45.89
10806;BME280;5455;53.224;6.000;2022-09-06T12:38:14;101515.50;;;28.72;45.08
10806;BME280;5455;53.224;6.000;2022-09-06T12:40:46;101517.88;;;28.82;44.73
10806;BME280;5455;53.224;6.000;2022-09-06T12:43:16;101520.66;;;29.22;44.90
10806;BME280;5455;53.224;6.000;2022-09-06T12:45:44;101528.72;;;29.60;43.55
10806;BME280;5455;53.224;6.000;2022-09-06T12:48:31;101540.53;;;30.13;42.64
10806;BME280;5455;53.224;6.000;2022-09-06T12:51:03;101544.59;;;30.39;41.49
10806;BME280;5455;53.224;6.000;2022-09-06T12:53:31;101539.59;;;30.16;40.55
10806;BME280;5455;53.224;6.000;2022-09-06T12:58:33;101524.75;;;29.76;41.77
10806;BME280;5455;53.224;6.000;2022-09-06T13:01:15;101519.38;;;29.78;42.29
10806;BME280;5455;53.224;6.000;2022-09-06T13:06:24;101533.13;;;30.57;41.35
10806;BME280;5455;53.224;6.000;2022-09-06T13:08:56;101533.97;;;30.82;40.77
10806;BME280;5455;53.224;6.000;2022-09-06T13:11:33;101524.38;;;30.28;40.84
10806;BME280;5455;53.224;6.000;2022-09-06T13:14:10;101520.84;;;29.64;42.50
10806;BME280;5455;53.224;6.000;2022-09-06T13:16:45;101511.34;;;29.76;42.64
10806;BME280;5455;53.224;6.000;2022-09-06T13:19:34;101522.34;;;30.11;41.71
10806;BME280;5455;53.224;6.000;2022-09-06T13:22:04;101515.94;;;29.92;41.39
10806;BME280;5455;53.224;6.000;2022-09-06T13:27:00;101501.22;;;29.75;41.77
10806;BME280;5455;53.224;6.000;2022-09-06T13:30:05;101493.81;;;29.87;42.12
10806;BME280;5455;53.224;6.000;2022-09-06T13:32:34;101490.13;;;29.95;42.31
10806;BME280;5455;53.224;6.000;2022-09-06T13:35:02;101494.03;;;30.25;42.32
10806;BME280;5455;53.224;6.000;2022-09-06T13:37:32;101492.19;;;30.55;40.93
10806;BME280;5455;53.224;6.000;2022-09-06T13:40:01;101493.09;;;30.61;41.32
10806;BME280;5455;53.224;6.000;2022-09-06T13:42:35;101499.22;;;30.69;41.46
10806;BME280;5455;53.224;6.000;2022-09-06T13:45:26;101491.63;;;30.66;42.21
10806;BME280;5455;53.224;6.000;2022-09-06T13:48:01;101495.25;;;30.42;42.58
10806;BME280;5455;53.224;6.000;2022-09-06T13:50:47;101502.81;;;30.36;42.74
10806;BME280;5455;53.224;6.000;2022-09-06T13:53:18;101491.25;;;30.07;43.12
10806;BME280;5455;53.224;6.000;2022-09-06T13:55:46;101486.53;;;29.95;43.55
10806;BME280;5455;53.224;6.000;2022-09-06T13:58:13;101488.28;;;29.83;43.83
10806;BME280;5455;53.224;6.000;2022-09-06T14:00:40;101482.09;;;29.76;43.26
10806;BME280;5455;53.224;6.000;2022-09-06T14:03:10;101487.31;;;29.86;43.95
10806;BME280;5455;53.224;6.000;2022-09-06T14:05:40;101486.16;;;30.11;42.33
10806;BME280;5455;53.224;6.000;2022-09-06T14:08:07;101484.59;;;30.10;42.55
10806;BME280;5455;53.224;6.000;2022-09-06T14:10:34;101480.59;;;30.17;42.42
10806;BME280;5455;53.224;6.000;2022-09-06T14:13:01;101476.97;;;30.16;42.32
10806;BME280;5455;53.224;6.000;2022-09-06T14:15:28;101480.78;;;30.13;42.75
10806;BME280;5455;53.224;6.000;2022-09-06T14:17:56;101478.09;;;30.10;42.25
10806;BME280;5455;53.224;6.000;2022-09-06T14:20:22;101479.66;;;30.11;41.10
10806;BME280;5455;53.224;6.000;2022-09-06T14:22:49;101488.16;;;30.20;40.84
10806;BME280;5455;53.224;6.000;2022-09-06T14:25:16;101484.16;;;30.35;40.31
10806;BME280;5455;53.224;6.000;2022-09-06T14:27:43;101485.88;;;30.51;39.32
10806;BME280;5455;53.224;6.000;2022-09-06T14:30:13;101481.72;;;30.61;39.96
10806;BME280;5455;53.224;6.000;2022-09-06T14:32:40;101478.88;;;30.85;38.85
10806;BME280;5455;53.224;6.000;2022-09-06T14:35:07;101488.72;;;30.75;38.93
10806;BME280;5455;53.224;6.000;2022-09-06T14:37:35;101483.84;;;30.42;40.08
10806;BME280;5455;53.224;6.000;2022-09-06T14:40:03;101479.66;;;30.52;40.05
10806;BME280;5455;53.224;6.000;2022-09-06T14:42:31;101475.22;;;30.61;39.65
10806;BME280;5455;53.224;6.000;2022-09-06T14:44:58;101475.03;;;30.64;39.89
10806;BME280;5455;53.224;6.000;2022-09-06T14:47:25;101469.88;;;30.53;40.04
10806;BME280;5455;53.224;6.000;2022-09-06T14:49:52;101464.53;;;30.46;41.52
10806;BME280;5455;53.224;6.000;2022-09-06T14:52:19;101453.22;;;30.28;42.80
10806;BME280;5455;53.224;6.000;2022-09-06T14:54:46;101456.56;;;30.18;43.12
10806;BME280;5455;53.224;6.000;2022-09-06T14:57:14;101447.72;;;30.16;43.14
10806;BME280;5455;53.224;6.000;2022-09-06T14:59:41;101452.97;;;30.08;43.00
10806;BME280;5455;53.224;6.000;2022-09-06T15:02:08;101442.44;;;29.90;43.22
10806;BME280;5455;53.224;6.000;2022-09-06T15:04:35;101431.84;;;29.91;43.90
10806;BME280;5455;53.224;6.000;2022-09-06T15:07:04;101428.41;;;29.69;43.56
10806;BME280;5455;53.224;6.000;2022-09-06T15:09:31;101425.28;;;29.58;43.55
10806;BME280;5455;53.224;6.000;2022-09-06T15:11:58;101411.91;;;29.31;44.37
10806;BME280;5455;53.224;6.000;2022-09-06T15:14:26;101405.44;;;29.30;45.32
10806;BME280;5455;53.224;6.000;2022-09-06T15:16:56;101409.22;;;29.27;45.51